createdAt,value
2023-04-16T00:01:43.997Z,7.20
2023-04-16T00:04:45.892Z,7.20
2023-04-16T00:07:47.819Z,7.20
2023-04-16T00:10:49.484Z,7.20
2023-04-16T00:13:51.133Z,7.10
2023-04-16T00:16:53.118Z,7.10
2023-04-16T00:19:54.808Z,7.10
2023-04-16T00:22:56.445Z,7.00
2023-04-16T00:25:59.986Z,7.00
2023-04-16T00:29:01.912Z,7.00
2023-04-16T00:32:03.682Z,7.00
2023-04-16T00:35:06.009Z,7.00
2023-04-16T00:38:07.648Z,6.90
2023-04-16T00:41:09.297Z,7.00
2023-04-16T00:44:11.021Z,6.90
2023-04-16T00:47:12.976Z,6.90
2023-04-16T00:50:14.676Z,6.90
2023-04-16T00:53:16.297Z,6.90
2023-04-16T00:56:18.111Z,6.90
2023-04-16T00:59:19.931Z,6.90
2023-04-16T01:02:21.641Z,6.90
2023-04-16T01:05:23.337Z,6.90
2023-04-16T01:08:25.107Z,6.80
2023-04-16T01:11:26.807Z,6.80
2023-04-16T01:14:28.504Z,6.80
2023-04-16T01:17:30.398Z,6.80
2023-04-16T01:20:35.780Z,6.70
2023-04-16T01:23:37.576Z,6.70
2023-04-16T01:26:39.363Z,6.70
2023-04-16T01:29:41.156Z,6.70
2023-04-16T01:32:42.820Z,6.80
2023-04-16T01:35:44.557Z,6.80
2023-04-16T01:38:46.454Z,6.80
2023-04-16T01:41:48.159Z,6.80
2023-04-16T01:44:49.811Z,6.80
2023-04-16T01:47:51.626Z,6.80
2023-04-16T01:50:53.315Z,6.80
2023-04-16T01:53:55.518Z,6.80
2023-04-16T01:56:57.558Z,6.80
2023-04-16T01:59:59.189Z,6.80
2023-04-16T02:03:01.003Z,6.80
2023-04-16T02:06:03.040Z,6.70
2023-04-16T02:09:04.676Z,6.70
2023-04-16T02:12:06.707Z,6.70
2023-04-16T02:15:08.774Z,6.80
2023-04-16T02:18:10.436Z,6.80
2023-04-16T02:21:12.064Z,6.80
2023-04-16T02:24:13.826Z,6.80
2023-04-16T02:27:16.803Z,6.80
2023-04-16T02:30:18.512Z,6.80
2023-04-16T02:33:20.320Z,6.80
2023-04-16T02:36:22.233Z,6.70
2023-04-16T02:39:23.958Z,6.70
2023-04-16T02:42:28.677Z,6.80
2023-04-16T02:45:31.600Z,6.80
2023-04-16T02:48:34.600Z,6.80
2023-04-16T02:51:36.231Z,6.80
2023-04-16T02:54:37.887Z,6.80
2023-04-16T02:57:39.656Z,6.80
2023-04-16T03:00:41.325Z,6.80
2023-04-16T03:03:42.962Z,6.80
2023-04-16T03:06:44.875Z,6.90
2023-04-16T03:09:46.808Z,6.90
2023-04-16T03:12:48.484Z,6.90
2023-04-16T03:15:50.380Z,6.90
2023-04-16T03:18:52.227Z,6.90
2023-04-16T03:21:53.847Z,6.80
2023-04-16T03:24:55.518Z,6.80
2023-04-16T03:27:57.373Z,6.80
2023-04-16T03:30:59.074Z,6.80
2023-04-16T03:34:00.846Z,6.80
2023-04-16T03:37:02.680Z,6.80
2023-04-16T03:40:07.508Z,6.90
2023-04-16T03:43:09.148Z,6.90
2023-04-16T03:46:11.237Z,6.90
2023-04-16T03:49:12.937Z,6.90
2023-04-16T03:52:14.614Z,6.90
2023-04-16T03:55:16.368Z,6.90
2023-04-16T03:58:18.586Z,6.90
2023-04-16T04:01:20.264Z,6.90
2023-04-16T04:04:22.070Z,6.90
2023-04-16T04:07:24.024Z,6.90
2023-04-16T04:10:25.793Z,7.00
2023-04-16T04:13:27.430Z,7.00
2023-04-16T04:16:29.309Z,7.00
2023-04-16T04:19:31.080Z,7.00
2023-04-16T04:22:32.774Z,7.00
2023-04-16T04:25:35.352Z,7.00
2023-04-16T04:28:37.142Z,7.00
2023-04-16T04:31:38.847Z,7.10
2023-04-16T04:34:40.504Z,7.10
2023-04-16T04:37:42.156Z,7.20
2023-04-16T04:40:43.791Z,7.20
2023-04-16T04:43:45.416Z,7.20
2023-04-16T04:46:47.342Z,7.20
2023-04-16T04:49:48.993Z,7.20
2023-04-16T04:52:50.904Z,7.20
2023-04-16T04:55:55.698Z,7.20
2023-04-16T04:59:00.591Z,7.30
2023-04-16T05:02:03.395Z,7.40
2023-04-16T05:05:05.774Z,7.50
2023-04-16T05:08:07.823Z,7.50
2023-04-16T05:11:09.537Z,7.50
2023-04-16T05:14:11.391Z,7.50
2023-04-16T05:17:13.385Z,7.50
2023-04-16T05:20:15.010Z,7.50
2023-04-16T05:23:16.717Z,7.50
2023-04-16T05:26:18.680Z,7.60
2023-04-16T05:29:20.431Z,7.60
2023-04-16T05:32:22.535Z,7.60
2023-04-16T05:35:24.208Z,7.60
2023-04-16T05:38:25.932Z,7.80
2023-04-16T05:41:27.586Z,7.80
2023-04-16T05:44:29.225Z,7.80
2023-04-16T05:47:31.063Z,7.90
2023-04-16T05:50:32.749Z,7.90
2023-04-16T05:53:34.443Z,8.00
2023-04-16T05:56:36.386Z,8.00
2023-04-16T05:59:38.011Z,8.00
2023-04-16T06:02:39.864Z,8.00
2023-04-16T06:05:41.649Z,8.10
2023-04-16T06:08:43.569Z,8.20
2023-04-16T06:11:45.507Z,8.20
2023-04-16T06:14:47.216Z,8.30
2023-04-16T06:17:49.811Z,8.40
2023-04-16T06:20:51.510Z,8.50
2023-04-16T06:23:54.134Z,8.60
2023-04-16T06:26:59.006Z,8.60
2023-04-16T06:30:00.888Z,8.70
2023-04-16T06:33:02.621Z,8.80
2023-04-16T06:36:05.587Z,9.00
2023-04-16T06:39:09.939Z,9.00
2023-04-16T06:42:11.998Z,9.20
2023-04-16T06:45:16.828Z,9.20
2023-04-16T06:48:18.475Z,9.40
2023-04-16T06:51:20.626Z,9.40
2023-04-16T06:54:22.326Z,9.50
2023-04-16T06:57:24.115Z,9.60
2023-04-16T07:00:25.937Z,9.70
2023-04-16T07:03:27.773Z,9.80
2023-04-16T07:06:29.664Z,10.00
2023-04-16T07:09:31.395Z,10.10
2023-04-16T07:12:33.302Z,10.20
2023-04-16T07:15:34.940Z,10.30
2023-04-16T07:18:36.864Z,10.40
2023-04-16T07:21:38.934Z,10.50
2023-04-16T07:24:40.653Z,10.60
2023-04-16T07:27:42.416Z,10.70
2023-04-16T07:30:44.053Z,10.90
2023-04-16T07:33:45.686Z,11.10
2023-04-16T07:36:47.376Z,11.10
2023-04-16T07:39:49.074Z,11.30
2023-04-16T07:42:51.000Z,11.50
2023-04-16T07:45:52.717Z,11.60
2023-04-16T07:48:54.383Z,11.70
2023-04-16T07:51:56.038Z,11.90
2023-04-16T07:54:57.661Z,12.00
2023-04-16T07:57:59.577Z,12.10
2023-04-16T08:01:01.392Z,12.20
2023-04-16T08:04:03.256Z,12.40
2023-04-16T08:07:05.184Z,12.50
2023-04-16T08:10:07.452Z,12.70
2023-04-16T08:13:09.123Z,12.90
2023-04-16T08:16:11.142Z,12.90
2023-04-16T08:19:12.985Z,13.00
2023-04-16T08:22:14.942Z,13.10
2023-04-16T08:25:16.691Z,13.10
2023-04-16T08:28:18.479Z,13.20
2023-04-16T08:31:20.382Z,13.20
2023-04-16T08:34:22.207Z,13.30
2023-04-16T08:37:23.914Z,13.30
2023-04-16T08:40:26.909Z,13.30
2023-04-16T08:43:29.301Z,13.30
2023-04-16T08:46:32.233Z,13.40
2023-04-16T08:49:33.889Z,13.40
2023-04-16T08:52:36.022Z,13.40
2023-04-16T08:55:41.135Z,13.30
2023-04-16T08:58:42.946Z,13.50
2023-04-16T09:01:45.472Z,13.50
2023-04-16T09:04:47.296Z,13.50
2023-04-16T09:07:49.172Z,13.50
2023-04-16T09:10:50.817Z,13.70
2023-04-16T09:13:52.520Z,13.70
2023-04-16T09:16:55.658Z,13.70
2023-04-16T09:19:57.350Z,13.80
2023-04-16T09:22:58.978Z,13.90
2023-04-16T09:26:00.863Z,14.00
2023-04-16T09:29:02.706Z,14.20
2023-04-16T09:32:08.651Z,14.30
2023-04-16T09:35:10.454Z,14.30
2023-04-16T09:38:12.262Z,14.40
2023-04-16T09:41:16.260Z,14.40
2023-04-16T09:44:17.911Z,14.40
2023-04-16T09:47:20.121Z,14.60
2023-04-16T09:50:21.882Z,14.90
2023-04-16T09:53:30.681Z,15.20
2023-04-16T09:56:32.532Z,15.30
2023-04-16T09:59:35.783Z,15.30
2023-04-16T10:02:41.771Z,15.30
2023-04-16T10:05:43.833Z,15.30
2023-04-16T10:08:52.572Z,15.30
2023-04-16T10:11:54.205Z,15.30
2023-04-16T10:14:55.969Z,15.30
2023-04-16T10:18:00.147Z,15.40
2023-04-16T10:21:01.900Z,15.40
2023-04-16T10:24:03.688Z,15.40
2023-04-16T10:27:05.757Z,15.50
2023-04-16T10:30:08.459Z,15.60
2023-04-16T10:33:10.137Z,15.60
2023-04-16T10:36:16.122Z,15.80
2023-04-16T10:39:22.483Z,15.90
2023-04-16T10:42:24.143Z,16.00
2023-04-16T10:45:32.869Z,15.80
2023-04-16T10:48:46.761Z,15.60
2023-04-16T10:51:55.143Z,15.70
2023-04-16T10:54:56.779Z,15.70
2023-04-16T10:57:58.772Z,15.70
2023-04-16T11:01:01.209Z,15.80
2023-04-16T11:04:21.565Z,15.80
2023-04-16T11:07:45.316Z,15.80
2023-04-16T11:10:46.980Z,15.70
2023-04-16T11:13:48.621Z,15.80
2023-04-16T11:16:50.669Z,15.80
2023-04-16T11:19:53.551Z,16.00
2023-04-16T11:22:56.488Z,16.00
2023-04-16T11:25:59.219Z,16.30
2023-04-16T11:29:00.974Z,16.40
2023-04-16T11:32:02.630Z,16.40
2023-04-16T11:35:12.635Z,16.40
2023-04-16T11:38:14.377Z,16.50
2023-04-16T11:41:22.260Z,16.70
2023-04-16T11:44:25.278Z,16.80
2023-04-16T11:47:27.279Z,17.00
2023-04-16T11:50:29.096Z,17.20
2023-04-16T11:53:30.935Z,17.20
2023-04-16T11:56:35.149Z,17.40
2023-04-16T11:59:37.218Z,17.40
2023-04-16T12:02:58.987Z,17.30
2023-04-16T12:06:07.748Z,17.20
2023-04-16T12:09:25.298Z,17.30
2023-04-16T12:12:28.042Z,17.50
2023-04-16T12:15:46.686Z,17.40
2023-04-16T12:19:23.061Z,17.30
2023-04-16T12:22:36.752Z,17.30
2023-04-16T12:25:42.665Z,17.20
2023-04-16T12:28:44.518Z,17.00
2023-04-16T12:31:46.769Z,17.00
2023-04-16T12:34:51.633Z,17.30
2023-04-16T12:37:53.280Z,17.50
2023-04-16T12:40:56.969Z,17.50
2023-04-16T12:44:11.831Z,17.40
2023-04-16T12:47:13.494Z,17.20
2023-04-16T12:50:15.302Z,17.20
2023-04-16T12:53:16.940Z,17.20
2023-04-16T12:56:18.622Z,17.50
2023-04-16T12:59:20.345Z,17.50
2023-04-16T13:02:22.582Z,17.80
2023-04-16T13:05:24.317Z,17.90
2023-04-16T13:08:26.096Z,18.10
2023-04-16T13:11:27.800Z,18.30
2023-04-16T13:14:29.430Z,18.30
2023-04-16T13:17:31.411Z,18.30
2023-04-16T13:20:33.480Z,18.30
2023-04-16T13:23:35.576Z,18.20
2023-04-16T13:26:37.341Z,18.20
2023-04-16T13:29:39.010Z,18.20
2023-04-16T13:32:41.134Z,18.40
2023-04-16T13:35:42.924Z,18.20
2023-04-16T13:38:44.780Z,18.10
2023-04-16T13:41:47.509Z,18.00
2023-04-16T13:44:52.959Z,17.80
2023-04-16T13:47:55.615Z,17.50
2023-04-16T13:50:57.300Z,17.50
2023-04-16T13:53:59.009Z,17.40
2023-04-16T13:57:00.813Z,17.30
2023-04-16T14:00:03.345Z,17.20
2023-04-16T14:03:06.894Z,17.00
2023-04-16T14:06:08.881Z,17.10
2023-04-16T14:09:10.903Z,17.40
2023-04-16T14:12:12.911Z,17.60
2023-04-16T14:15:14.937Z,17.60
2023-04-16T14:18:16.961Z,17.80
2023-04-16T14:21:18.700Z,18.00
2023-04-16T14:24:20.363Z,18.00
2023-04-16T14:27:22.255Z,18.10
2023-04-16T14:30:23.894Z,18.30
2023-04-16T14:33:25.565Z,18.40
2023-04-16T14:36:27.589Z,18.30
2023-04-16T14:39:29.582Z,18.40
2023-04-16T14:42:31.236Z,18.50
2023-04-16T14:45:32.899Z,18.50
2023-04-16T14:48:34.698Z,18.40
2023-04-16T14:51:37.301Z,18.30
2023-04-16T14:54:38.934Z,18.40
2023-04-16T14:57:44.805Z,18.20
2023-04-16T15:00:46.446Z,18.00
2023-04-16T15:03:48.276Z,17.90
2023-04-16T15:06:50.474Z,17.80
2023-04-16T15:09:52.245Z,17.80
2023-04-16T15:12:53.863Z,17.70
2023-04-16T15:15:55.609Z,17.60
2023-04-16T15:18:57.446Z,17.50
2023-04-16T15:21:59.461Z,17.50
2023-04-16T15:25:01.219Z,17.20
2023-04-16T15:28:02.914Z,17.00
2023-04-16T15:31:04.573Z,17.00
2023-04-16T15:34:06.244Z,17.00
2023-04-16T15:37:08.315Z,17.00
2023-04-16T15:40:10.723Z,16.80
2023-04-16T15:43:12.399Z,16.80
2023-04-16T15:46:15.601Z,16.70
2023-04-16T15:49:17.480Z,16.70
2023-04-16T15:52:20.759Z,16.60
2023-04-16T15:55:22.560Z,16.60
2023-04-16T15:58:24.318Z,16.50
2023-04-16T16:01:26.457Z,16.50
2023-04-16T16:04:28.316Z,16.40
2023-04-16T16:07:30.346Z,16.40
2023-04-16T16:10:32.028Z,16.50
2023-04-16T16:13:33.786Z,16.70
2023-04-16T16:16:35.599Z,16.80
2023-04-16T16:19:37.401Z,17.00
2023-04-16T16:22:39.280Z,17.20
2023-04-16T16:25:42.108Z,17.50
2023-04-16T16:28:44.697Z,18.10
2023-04-16T16:31:46.464Z,18.40
2023-04-16T16:34:48.706Z,18.50
2023-04-16T16:37:55.387Z,18.60
2023-04-16T16:40:57.111Z,18.60
2023-04-16T16:43:59.020Z,18.40
2023-04-16T16:47:00.956Z,18.30
2023-04-16T16:50:03.282Z,18.10
2023-04-16T16:53:05.393Z,18.00
2023-04-16T16:56:07.102Z,17.80
2023-04-16T16:59:09.055Z,17.50
2023-04-16T17:02:11.026Z,17.30
2023-04-16T17:05:12.819Z,17.30
2023-04-16T17:08:15.015Z,17.40
2023-04-16T17:11:16.840Z,17.80
2023-04-16T17:14:18.905Z,18.20
2023-04-16T17:17:20.946Z,18.20
2023-04-16T17:20:22.658Z,18.20
2023-04-16T17:23:24.424Z,18.00
2023-04-16T17:26:27.207Z,17.60
2023-04-16T17:29:29.621Z,17.60
2023-04-16T17:32:34.372Z,18.00
2023-04-16T17:35:36.072Z,17.80
2023-04-16T17:38:37.842Z,17.40
2023-04-16T17:41:39.489Z,16.90
2023-04-16T17:44:41.588Z,16.50
2023-04-16T17:47:44.474Z,16.20
2023-04-16T17:50:46.194Z,16.00
2023-04-16T17:53:47.949Z,15.90
2023-04-16T17:56:49.646Z,15.80
2023-04-16T17:59:51.302Z,15.60
2023-04-16T18:02:53.096Z,15.60
2023-04-16T18:05:54.992Z,15.40
2023-04-16T18:08:56.754Z,15.20
2023-04-16T18:11:58.438Z,15.20
2023-04-16T18:15:00.171Z,15.00
2023-04-16T18:18:02.077Z,15.00
2023-04-16T18:21:03.875Z,14.90
2023-04-16T18:24:06.627Z,14.80
2023-04-16T18:27:08.580Z,14.80
2023-04-16T18:30:20.157Z,14.80
2023-04-16T18:33:38.832Z,14.70
2023-04-16T18:36:46.124Z,14.60
2023-04-16T18:39:47.907Z,14.50
2023-04-16T18:42:49.716Z,14.50
2023-04-16T18:45:51.698Z,14.50
2023-04-16T18:48:53.481Z,14.40
2023-04-16T18:51:57.921Z,14.40
2023-04-16T18:54:59.562Z,14.40
2023-04-16T18:58:01.341Z,14.30
2023-04-16T19:01:03.753Z,14.30
2023-04-16T19:04:05.569Z,14.30
2023-04-16T19:07:07.523Z,14.30
2023-04-16T19:10:09.534Z,14.30
2023-04-16T19:13:11.192Z,14.20
2023-04-16T19:16:13.153Z,14.30
2023-04-16T19:19:18.021Z,14.30
2023-04-16T19:22:19.707Z,14.30
2023-04-16T19:25:21.387Z,14.30
2023-04-16T19:28:24.004Z,14.20
2023-04-16T19:31:26.501Z,14.20
2023-04-16T19:34:28.180Z,14.10
2023-04-16T19:37:29.844Z,14.10
2023-04-16T19:40:31.478Z,14.00
2023-04-16T19:43:33.170Z,14.00
2023-04-16T19:46:34.857Z,13.90
2023-04-16T19:49:36.632Z,13.90
2023-04-16T19:52:38.920Z,13.80
2023-04-16T19:55:41.189Z,13.70
2023-04-16T19:58:42.951Z,13.70
2023-04-16T20:01:44.921Z,13.70
2023-04-16T20:04:48.391Z,13.60
2023-04-16T20:07:52.611Z,13.60
2023-04-16T20:10:54.519Z,13.60
2023-04-16T20:14:00.103Z,13.50
2023-04-16T20:17:02.292Z,13.50
2023-04-16T20:20:10.947Z,13.40
2023-04-16T20:23:13.057Z,13.30
2023-04-16T20:26:19.246Z,13.30
2023-04-16T20:29:21.015Z,13.30
2023-04-16T20:32:22.775Z,13.30
2023-04-16T20:35:24.513Z,13.30
2023-04-16T20:38:26.198Z,13.20
2023-04-16T20:41:30.111Z,13.20
2023-04-16T20:44:40.235Z,13.10
2023-04-16T20:47:43.505Z,13.10
2023-04-16T20:50:45.371Z,13.10
2023-04-16T20:53:47.074Z,13.10
2023-04-16T20:56:50.291Z,13.10
2023-04-16T20:59:51.960Z,13.10
2023-04-16T21:02:53.829Z,13.00
2023-04-16T21:05:55.735Z,13.00
2023-04-16T21:08:57.426Z,13.00
2023-04-16T21:12:01.480Z,13.00
2023-04-16T21:15:04.071Z,13.00
2023-04-16T21:18:06.289Z,12.90
2023-04-16T21:21:07.946Z,12.90
2023-04-16T21:24:09.582Z,12.90
2023-04-16T21:27:11.608Z,12.90
2023-04-16T21:30:13.879Z,12.80
2023-04-16T21:33:16.610Z,12.80
2023-04-16T21:36:18.297Z,12.80
2023-04-16T21:39:21.573Z,12.80
2023-04-16T21:42:23.154Z,12.80
2023-04-16T21:45:24.721Z,12.80
2023-04-16T21:48:27.036Z,12.70
2023-04-16T21:51:31.473Z,12.70
2023-04-16T21:54:33.122Z,12.70
2023-04-16T21:57:35.993Z,12.70
2023-04-16T22:00:37.697Z,12.80
2023-04-16T22:03:40.471Z,12.70
2023-04-16T22:06:46.147Z,12.70
2023-04-16T22:09:47.827Z,12.70
2023-04-16T22:12:49.482Z,12.70
2023-04-16T22:15:51.394Z,12.70
2023-04-16T22:18:54.900Z,12.70
2023-04-16T22:21:56.776Z,12.70
2023-04-16T22:24:58.506Z,12.70
2023-04-16T22:28:01.537Z,12.60
2023-04-16T22:31:03.368Z,12.60
2023-04-16T22:34:05.027Z,12.60
2023-04-16T22:37:08.088Z,12.60
2023-04-16T22:40:11.358Z,12.60
2023-04-16T22:43:13.016Z,12.50
2023-04-16T22:46:14.770Z,12.50
2023-04-16T22:49:16.499Z,12.50
2023-04-16T22:52:18.202Z,12.50
2023-04-16T22:55:19.995Z,12.50
2023-04-16T22:58:21.881Z,12.50
2023-04-16T23:01:24.080Z,12.50
2023-04-16T23:04:25.804Z,12.50
2023-04-16T23:07:27.578Z,12.50
2023-04-16T23:10:29.204Z,12.50
2023-04-16T23:13:31.447Z,12.50
2023-04-16T23:16:33.356Z,12.50
2023-04-16T23:19:35.040Z,12.50
2023-04-16T23:22:36.677Z,12.50
2023-04-16T23:25:40.548Z,12.50
2023-04-16T23:28:42.410Z,12.40
2023-04-16T23:31:44.076Z,12.50
2023-04-16T23:34:45.909Z,12.50
2023-04-16T23:37:47.822Z,12.50
2023-04-16T23:40:49.580Z,12.40
2023-04-16T23:43:51.226Z,12.40
2023-04-16T23:46:53.043Z,12.40
2023-04-16T23:49:54.792Z,12.50
2023-04-16T23:52:56.448Z,12.50
2023-04-16T23:55:58.197Z,12.40
2023-04-16T23:58:59.853Z,12.30
